Time;durP1;ratioP1;P1;durP2;ratioP2;P2;SDS_P1;SDS_P2;PMS_P1;PMS_P2;Temp;Humidity;BMP_temperature;BMP_pressure;BME280_temperature;BME280_humidity;BME280_pressure;Samples;Min_cycle;Max_cycle;Signal;HPM_P1;HPM_P2
2022/10/14 00:00:40;;;;;;;6.40;2.17;;;;;;;12.94;80.58;100960.72;4991931;28;20022;-69
2022/10/14 00:03:05;;;;;;;7.90;2.75;;;;;;;13.01;79.92;100956.59;4991956;28;20022;-69
2022/10/14 00:05:31;;;;;;;8.15;2.78;;;;;;;12.86;80.26;100952.66;4991859;28;20057;-68
2022/10/14 00:07:56;;;;;;;4.55;2.00;;;;;;;12.45;82.20;100971.06;4991863;28;20026;-71
2022/10/14 00:10:21;;;;;;;5.18;2.00;;;;;;;12.57;82.04;100968.06;4991903;28;20019;-69
2022/10/14 00:12:49;;;;;;;5.45;2.08;;;;;;;12.55;81.82;100969.69;4991401;28;20451;-70
2022/10/14 00:15:14;;;;;;;3.58;1.50;;;;;;;12.43;82.23;100957.16;4991613;28;20026;-69
2022/10/14 00:17:40;;;;;;;5.70;1.77;;;;;;;12.39;82.41;100967.38;5006411;28;20038;-71
2022/10/14 00:20:06;;;;;;;3.35;1.40;;;;;;;12.48;81.99;100959.94;4991872;28;20027;-69
2022/10/14 00:22:31;;;;;;;4.70;1.95;;;;;;;12.29;81.95;100920.41;4991199;28;20049;-68
2022/10/14 00:24:57;;;;;;;2.55;1.52;;;;;;;12.42;82.03;100945.06;4991945;28;20624;-68
2022/10/14 00:27:22;;;;;;;6.60;2.00;;;;;;;12.55;80.99;100942.94;4992147;28;20160;-70
2022/10/14 00:29:48;;;;;;;4.55;1.50;;;;;;;12.56;80.14;100949.84;4991665;28;20031;-72
2022/10/14 00:32:13;;;;;;;4.10;1.50;;;;;;;12.57;79.58;100949.03;4991590;28;20101;-71
2022/10/14 00:34:39;;;;;;;3.95;1.58;;;;;;;12.59;79.53;100947.38;4992292;28;20029;-72
2022/10/14 00:37:04;;;;;;;4.60;1.40;;;;;;;12.67;79.21;100938.16;4991931;28;20064;-71
2022/10/14 00:39:30;;;;;;;5.68;1.83;;;;;;;12.54;79.08;100904.91;4992169;28;20417;-67
2022/10/14 00:41:56;;;;;;;4.38;1.50;;;;;;;12.70;79.28;100933.09;4991193;28;20030;-70
2022/10/14 00:44:24;;;;;;;4.78;1.60;;;;;;;12.73;79.68;100943.56;4991731;28;20460;-70
2022/10/14 00:46:50;;;;;;;5.55;1.83;;;;;;;12.78;80.58;100933.38;4991558;28;20058;-69
2022/10/14 00:49:33;;;;;;;8.15;2.15;;;;;;;12.86;81.29;100931.03;4991593;28;20100;-70
2022/10/14 00:52:02;;;;;;;4.28;1.77;;;;;;;12.97;81.86;100936.59;4991377;28;20034;-70
2022/10/14 00:54:50;;;;;;;5.28;1.70;;;;;;;13.19;80.84;100925.25;4991809;28;20034;-72
2022/10/14 00:57:16;;;;;;;6.80;1.58;;;;;;;13.13;80.12;100891.34;4991076;28;20038;-70
2022/10/14 00:59:42;;;;;;;5.57;1.50;;;;;;;13.38;79.44;100912.13;4991798;28;20022;-70
2022/10/14 01:02:07;;;;;;;4.30;1.60;;;;;;;13.40;79.29;100917.34;4991012;28;20034;-70
2022/10/14 01:04:35;;;;;;;13.52;2.65;;;;;;;13.33;81.02;100908.44;4991377;28;20022;-70
2022/10/14 01:07:28;;;;;;;19.98;2.85;;;;;;;13.19;82.39;100909.72;4991125;28;20468;-68
2022/10/14 01:10:08;;;;;;;19.70;3.65;;;;;;;13.04;83.89;100905.75;4991037;28;20061;-70
2022/10/14 01:12:52;;;;;;;;;;;;;;;12.94;84.09;100901.09;4991588;28;20034;-73
2022/10/14 01:15:44;;;;;;;15.82;2.90;;;;;;;12.91;84.03;100890.63;4991197;28;19920;-70
2022/10/14 01:18:21;;;;;;;13.93;2.72;;;;;;;12.93;83.89;100889.88;4990879;28;20110;-71
2022/10/14 01:20:58;;;;;;;10.35;2.20;;;;;;;13.03;83.84;100885.84;4990853;28;20023;-68
2022/10/14 01:23:27;;;;;;;12.07;2.65;;;;;;;13.10;83.55;100887.81;4991199;28;20056;-71
2022/10/14 01:26:08;;;;;;;15.23;2.47;;;;;;;12.90;83.19;100837.06;4990913;28;20061;-69
2022/10/14 01:28:42;;;;;;;11.05;2.33;;;;;;;12.82;83.85;100844.53;4990810;28;20109;-70
2022/10/14 01:31:14;;;;;;;17.55;2.78;;;;;;;13.00;83.59;100880.59;4990944;28;20023;-68
2022/10/14 01:33:43;;;;;;;15.40;2.67;;;;;;;12.88;84.07;100882.75;5027683;28;20029;-68
2022/10/14 01:36:23;;;;;;;13.20;2.65;;;;;;;12.79;85.15;100891.97;5027703;28;20128;-73
2022/10/14 01:39:25;;;;;;;8.40;2.88;;;;;;;12.70;85.51;100888.19;4994604;28;20084;-71
2022/10/14 01:41:58;;;;;;;11.50;2.38;;;;;;;12.71;85.75;100888.25;4968879;28;20073;-70
2022/10/14 01:44:25;;;;;;;10.65;2.22;;;;;;;12.73;85.13;100889.16;4968949;28;20548;-69
2022/10/14 01:46:54;;;;;;;8.18;2.15;;;;;;;12.70;84.93;100881.28;4968849;28;20434;-70
2022/10/14 01:49:46;;;;;;;6.57;2.15;;;;;;;12.62;85.08;100874.94;4968770;28;20057;-70
2022/10/14 01:52:18;;;;;;;9.98;2.78;;;;;;;12.62;84.80;100882.72;4971197;28;20402;-70
2022/10/14 01:54:47;;;;;;;10.07;2.38;;;;;;;12.60;84.67;100868.84;4972851;28;20045;-72
2022/10/14 01:57:18;;;;;;;9.68;2.30;;;;;;;12.56;84.78;100852.31;4973005;28;20026;-70
2022/10/14 01:59:45;;;;;;;6.90;2.00;;;;;;;12.77;85.00;100883.28;4972524;28;20053;-70
2022/10/14 02:02:12;;;;;;;18.10;2.85;;;;;;;12.82;84.02;100882.53;4972827;28;20492;-73
2022/10/14 02:04:38;;;;;;;6.25;2.30;;;;;;;12.47;83.72;100841.63;4954074;28;20396;-67
2022/10/14 02:07:09;;;;;;;6.20;2.42;;;;;;;12.60;83.62;100874.91;4934184;29;20490;-71
2022/10/14 02:09:57;;;;;;;12.95;2.53;;;;;;;12.59;83.21;100877.44;4934416;29;20047;-70
2022/10/14 02:12:41;;;;;;;7.57;2.95;;;;;;;12.66;82.80;100878.53;4914576;29;20035;-70
2022/10/14 02:15:16;;;;;;;7.85;2.90;;;;;;;12.63;82.56;100868.94;4915549;29;20047;-70
2022/10/14 02:18:11;;;;;;;6.20;2.10;;;;;;;12.40;82.67;100839.63;4925764;29;20035;-70
2022/10/14 02:20:46;;;;;;;8.65;1.95;;;;;;;12.56;82.50;100854.00;4952801;28;20062;-71
2022/10/14 02:23:20;;;;;;;12.30;2.72;;;;;;;12.49;82.79;100859.84;4953047;29;20517;-70
2022/10/14 02:25:48;;;;;;;9.50;2.40;;;;;;;12.15;83.28;100843.97;4953051;29;20046;-70
2022/10/14 02:28:18;;;;;;;12.07;2.45;;;;;;;12.16;85.10;100847.41;4953204;29;20034;-70
2022/10/14 02:30:56;;;;;;;6.70;1.88;;;;;;;12.20;84.55;100857.03;4952842;29;20039;-70
2022/10/14 02:33:25;;;;;;;7.05;1.95;;;;;;;11.76;83.54;100769.19;4952725;28;20114;-70
2022/10/14 02:35:52;;;;;;;8.50;2.17;;;;;;;12.24;82.23;100841.69;4952737;29;20046;-67
2022/10/14 02:38:19;;;;;;;11.02;2.08;;;;;;;12.28;82.22;100847.88;4953083;29;20038;-68
2022/10/14 02:40:48;;;;;;;4.35;1.88;;;;;;;12.24;82.71;100849.47;4953020;29;20082;-70
2022/10/14 02:43:14;;;;;;;5.35;2.20;;;;;;;12.12;82.87;100847.31;4952782;29;20066;-67
2022/10/14 02:45:42;;;;;;;5.68;2.20;;;;;;;12.12;83.18;100857.69;4952448;29;20114;-71
2022/10/14 02:48:08;;;;;;;4.15;2.03;;;;;;;12.04;83.68;100859.09;4952359;29;20581;-70
2022/10/14 02:50:34;;;;;;;5.22;2.30;;;;;;;12.02;83.97;100857.28;4993827;28;20077;-71
2022/10/14 02:52:59;;;;;;;5.15;2.42;;;;;;;11.95;84.85;100867.34;4993648;28;20444;-70
2022/10/14 02:55:25;;;;;;;5.95;2.42;;;;;;;12.04;84.87;100864.25;4993650;28;20117;-71
2022/10/14 02:57:51;;;;;;;4.95;2.63;;;;;;;12.08;84.66;100858.38;4994150;28;20078;-72
2022/10/14 03:00:16;;;;;;;6.80;2.30;;;;;;;12.02;85.16;100846.91;4993067;28;20492;-68
2022/10/14 03:02:42;;;;;;;6.35;2.28;;;;;;;12.00;85.52;100849.47;4993316;28;20118;-71
2022/10/14 03:05:07;;;;;;;6.72;2.40;;;;;;;11.96;85.25;100847.56;4993292;28;20485;-70
2022/10/14 03:07:33;;;;;;;7.43;2.65;;;;;;;11.94;85.19;100850.06;4993749;28;20096;-70
2022/10/14 03:09:58;;;;;;;6.75;2.30;;;;;;;11.96;84.06;100839.78;4993654;28;20033;-71
2022/10/14 03:12:24;;;;;;;7.90;2.20;;;;;;;12.00;82.36;100840.78;4993593;28;20031;-68
2022/10/14 03:14:50;;;;;;;7.85;2.13;;;;;;;11.58;81.38;100761.63;4992935;28;20058;-71
2022/10/14 03:17:15;;;;;;;6.60;2.15;;;;;;;12.12;81.35;100844.72;4993539;28;20093;-68
2022/10/14 03:19:40;;;;;;;8.35;2.42;;;;;;;12.07;81.39;100847.97;4993567;28;20109;-72
2022/10/14 03:22:06;;;;;;;9.63;2.90;;;;;;;11.76;82.27;100833.84;4993208;28;20459;-70
2022/10/14 03:24:31;;;;;;;6.57;2.45;;;;;;;11.73;83.30;100842.38;4993480;28;20030;-68
2022/10/14 03:26:57;;;;;;;7.88;2.63;;;;;;;11.67;83.87;100842.13;4993377;28;20073;-71
2022/10/14 03:29:22;;;;;;;8.40;3.33;;;;;;;11.61;84.07;100839.31;4992645;28;20026;-70
2022/10/14 03:31:48;;;;;;;8.88;2.95;;;;;;;11.51;84.23;100834.63;4992944;28;20109;-71
2022/10/14 03:34:13;;;;;;;9.65;2.88;;;;;;;11.34;83.80;100821.91;4993207;28;20084;-68
2022/10/14 03:36:39;;;;;;;6.20;2.85;;;;;;;11.16;83.94;100802.28;4993078;28;20046;-70
2022/10/14 03:39:04;;;;;;;9.32;3.25;;;;;;;11.33;84.59;100833.94;4993218;28;20101;-69
2022/10/14 03:41:30;;;;;;;7.20;3.58;;;;;;;11.19;86.42;100824.78;4993085;28;20038;-69
2022/10/14 03:43:55;;;;;;;12.60;3.97;;;;;;;11.19;86.75;100836.78;4991210;28;20023;-69
2022/10/14 03:46:21;;;;;;;6.95;2.90;;;;;;;11.15;86.34;100831.50;4993081;28;20042;-68
2022/10/14 03:48:46;;;;;;;11.52;3.42;;;;;;;11.20;86.27;100841.16;4992487;28;20054;-70
2022/10/14 03:51:12;;;;;;;14.20;3.30;;;;;;;11.03;87.21;100833.59;4992927;28;20026;-69
2022/10/14 03:53:38;;;;;;;11.48;3.90;;;;;;;10.92;87.23;100830.56;4992539;28;20034;-68
2022/10/14 03:56:03;;;;;;;9.85;3.50;;;;;;;10.81;87.73;100811.16;4992856;28;20084;-70
2022/10/14 03:58:29;;;;;;;10.60;3.42;;;;;;;10.86;87.86;100829.44;4992473;28;20066;-70
2022/10/14 04:00:54;;;;;;;10.45;3.20;;;;;;;10.80;87.50;100822.31;4992455;28;20096;-70
2022/10/14 04:03:20;;;;;;;11.65;3.33;;;;;;;10.73;87.69;100835.78;4993039;28;20034;-67
2022/10/14 04:05:45;;;;;;;8.68;3.67;;;;;;;10.62;87.78;100818.13;4992309;28;20022;-71
2022/10/14 04:08:11;;;;;;;12.30;3.15;;;;;;;10.32;88.11;100790.16;4991926;28;20101;-71
2022/10/14 04:10:36;;;;;;;10.02;2.90;;;;;;;10.53;88.44;100830.66;4991910;28;20041;-69
2022/10/14 04:13:02;;;;;;;12.27;2.95;;;;;;;10.57;88.30;100832.56;4992257;28;20026;-70
2022/10/14 04:15:27;;;;;;;9.38;3.17;;;;;;;10.32;87.62;100795.31;4990236;28;20030;-69
2022/10/14 04:17:52;;;;;;;8.93;2.60;;;;;;;10.47;87.22;100823.53;4992106;28;20039;-69
2022/10/14 04:20:18;;;;;;;6.78;2.30;;;;;;;10.53;86.79;100825.50;4992233;28;20394;-71
2022/10/14 04:22:44;;;;;;;9.80;2.83;;;;;;;10.27;86.89;100785.59;4992656;28;20030;-72
2022/10/14 04:25:09;;;;;;;8.32;2.65;;;;;;;10.47;86.52;100814.91;4992016;28;20044;-68
2022/10/14 04:27:35;;;;;;;16.95;3.10;;;;;;;10.50;86.08;100815.94;4991801;28;20034;-71
2022/10/14 04:30:00;;;;;;;10.77;2.83;;;;;;;10.52;86.31;100819.44;4992133;28;20026;-70
2022/10/14 04:32:25;;;;;;;23.10;3.38;;;;;;;10.49;85.99;100816.75;4991966;28;20417;-69
2022/10/14 04:34:51;;;;;;;11.27;2.63;;;;;;;10.46;85.26;100814.00;4991952;28;20388;-69
2022/10/14 04:37:16;;;;;;;8.70;2.20;;;;;;;10.47;85.36;100810.63;4991746;28;20496;-68
2022/10/14 04:39:42;;;;;;;11.52;3.20;;;;;;;10.26;85.36;100768.38;4991748;28;20026;-70
2022/10/14 04:42:08;;;;;;;9.25;2.55;;;;;;;10.42;85.98;100817.28;4991918;28;20374;-67
2022/10/14 04:44:33;;;;;;;8.95;2.30;;;;;;;10.37;86.13;100821.38;4991481;28;20133;-66
2022/10/14 04:46:58;;;;;;;16.17;2.92;;;;;;;10.33;87.10;100812.59;4991408;28;20058;-66
2022/10/14 04:49:25;;;;;;;9.75;3.55;;;;;;;10.34;87.44;100813.44;4991712;28;20058;-69
2022/10/14 04:51:50;;;;;;;12.57;3.20;;;;;;;10.32;88.10;100818.56;4991222;28;20395;-69
2022/10/14 04:54:16;;;;;;;6.95;3.20;;;;;;;10.31;88.79;100821.06;4991748;28;20057;-67
2022/10/14 04:56:41;;;;;;;10.95;3.33;;;;;;;10.28;90.07;100815.75;4991401;28;20536;-67
2022/10/14 04:59:07;;;;;;;25.58;4.57;;;;;;;10.25;90.14;100816.50;4990976;28;20080;-70
2022/10/14 05:01:32;;;;;;;17.50;3.78;;;;;;;10.29;89.96;100817.53;4990353;28;20100;-69
2022/10/14 05:03:58;;;;;;;16.02;4.72;;;;;;;10.33;90.14;100815.16;4986177;28;20041;-69
2022/10/14 05:06:23;;;;;;;26.83;5.35;;;;;;;10.45;90.58;100813.97;4990551;28;20037;-69
2022/10/14 05:08:49;;;;;;;20.85;5.57;;;;;;;10.60;90.91;100817.19;4990686;28;20161;-69
2022/10/14 05:11:15;;;;;;;20.98;5.85;;;;;;;10.68;90.92;100814.94;4991386;28;20081;-70
2022/10/14 05:13:41;;;;;;;22.00;6.22;;;;;;;10.76;90.49;100820.44;4990092;28;20058;-67
2022/10/14 05:16:07;;;;;;;37.20;7.80;;;;;;;10.81;90.25;100812.03;4993369;28;20061;-70
2022/10/14 05:18:35;;;;;;;36.78;8.05;;;;;;;10.76;90.13;100799.75;4997903;28;20559;-70
2022/10/14 05:21:00;;;;;;;24.15;6.88;;;;;;;10.66;89.83;100788.16;4989653;28;20061;-68
2022/10/14 05:23:26;;;;;;;19.13;6.40;;;;;;;10.80;89.67;100811.97;4990717;28;20752;-68
2022/10/14 05:25:51;;;;;;;21.48;5.65;;;;;;;10.88;89.98;100818.34;4990383;28;20042;-68
2022/10/14 05:28:17;;;;;;;26.55;6.40;;;;;;;10.72;89.51;100780.69;4989918;28;20036;-69
2022/10/14 05:30:43;;;;;;;13.75;5.90;;;;;;;11.04;89.36;100830.19;4990394;28;20489;-67
2022/10/14 05:33:09;;;;;;;23.08;6.57;;;;;;;11.13;89.16;100821.94;4983027;28;20034;-69
2022/10/14 05:35:36;;;;;;;17.30;6.05;;;;;;;11.23;89.29;100824.06;4988168;28;20052;-69
2022/10/14 05:38:02;;;;;;;14.55;5.40;;;;;;;11.22;88.66;100803.34;4990135;28;20109;-69
2022/10/14 05:40:28;;;;;;;15.27;6.32;;;;;;;11.05;88.24;100775.09;4990338;28;20034;-68
2022/10/14 05:42:53;;;;;;;18.15;5.95;;;;;;;11.31;87.14;100819.19;4990034;28;20080;-72
2022/10/14 05:45:19;;;;;;;15.90;5.45;;;;;;;11.12;86.19;100773.66;4977160;28;20042;-72
2022/10/14 05:47:45;;;;;;;14.27;4.97;;;;;;;11.40;86.08;100817.00;4971377;28;20059;-72
2022/10/14 05:50:11;;;;;;;15.35;5.88;;;;;;;11.43;85.92;100811.06;4971422;28;20035;-68
2022/10/14 05:52:38;;;;;;;18.58;6.07;;;;;;;11.48;85.81;100812.09;4971017;28;20432;-68
2022/10/14 05:55:05;;;;;;;23.70;6.03;;;;;;;11.53;85.60;100809.72;4971407;28;20026;-71
2022/10/14 05:57:32;;;;;;;20.67;5.60;;;;;;;11.59;86.20;100817.66;4971012;28;20053;-73
2022/10/14 05:59:58;;;;;;;10.50;5.57;;;;;;;11.65;86.99;100807.56;4983936;28;20496;-68
2022/10/14 06:02:23;;;;;;;13.73;5.95;;;;;;;11.71;87.19;100819.84;4990677;28;20057;-66
2022/10/14 06:04:49;;;;;;;15.48;5.68;;;;;;;11.82;86.84;100818.56;4990173;28;20113;-68
2022/10/14 06:07:14;;;;;;;17.08;5.90;;;;;;;12.02;86.23;100810.69;4990506;28;20039;-67
2022/10/14 06:09:40;;;;;;;16.00;5.13;;;;;;;12.11;85.05;100816.19;4990753;28;20038;-68
2022/10/14 06:12:05;;;;;;;14.10;5.05;;;;;;;12.29;85.47;100815.97;4990569;28;20037;-68
2022/10/14 06:14:31;;;;;;;23.92;6.93;;;;;;;12.23;86.04;100819.22;4990879;28;20030;-68
2022/10/14 06:16:56;;;;;;;13.32;4.63;;;;;;;11.99;87.04;100793.34;4990606;28;20504;-68
2022/10/14 06:19:21;;;;;;;14.90;5.10;;;;;;;12.16;86.38;100818.94;4990041;28;20262;-68
2022/10/14 06:21:47;;;;;;;8.52;3.97;;;;;;;12.29;86.98;100821.16;4990637;28;20034;-68
2022/10/14 06:24:13;;;;;;;13.73;4.20;;;;;;;12.50;86.60;100825.31;4987875;28;20026;-68
2022/10/14 06:26:39;;;;;;;11.60;3.17;;;;;;;12.74;86.03;100817.53;4989969;28;20073;-68
2022/10/14 06:29:05;;;;;;;11.27;3.20;;;;;;;12.92;84.43;100814.63;4990321;28;20520;-67
2022/10/14 06:31:31;;;;;;;10.32;3.60;;;;;;;13.14;83.70;100817.94;4990411;28;20038;-69
2022/10/14 06:33:56;;;;;;;13.18;3.83;;;;;;;13.39;84.07;100827.41;4990258;28;20072;-68
2022/10/14 06:36:21;;;;;;;25.50;6.95;;;;;;;13.70;82.11;100818.84;4990357;28;20097;-69
2022/10/14 06:38:47;;;;;;;20.88;6.57;;;;;;;14.03;80.89;100809.38;4991297;28;20080;-68
2022/10/14 06:41:12;;;;;;;28.33;8.70;;;;;;;14.27;80.90;100819.59;4993467;28;20408;-68
2022/10/14 06:43:38;;;;;;;25.90;8.63;;;;;;;14.23;77.64;100768.38;4994256;28;20404;-70
2022/10/14 06:46:04;;;;;;;26.52;7.18;;;;;;;14.61;79.02;100812.69;4993652;28;20030;-67
2022/10/14 06:48:29;;;;;;;27.65;8.82;;;;;;;14.73;76.80;100806.97;4993565;28;20069;-66
2022/10/14 06:50:58;;;;;;;21.10;6.78;;;;;;;15.03;75.79;100813.78;4993988;28;20400;-67
2022/10/14 06:53:24;;;;;;;7.88;3.22;;;;;;;15.06;76.00;100826.84;4992654;28;20030;-68
2022/10/14 06:55:56;;;;;;;14.77;4.95;;;;;;;15.05;75.83;100812.06;4993127;28;20519;-72
2022/10/14 06:58:22;;;;;;;34.55;10.88;;;;;;;15.06;75.22;100811.22;4993654;28;20512;-70
2022/10/14 07:00:47;;;;;;;22.45;5.50;;;;;;;15.10;74.92;100820.00;4993908;28;20034;-70
2022/10/14 07:03:13;;;;;;;15.30;3.97;;;;;;;15.10;74.19;100801.78;5006890;28;20113;-70
2022/10/14 07:05:38;;;;;;;21.85;4.65;;;;;;;15.13;74.21;100807.94;4993020;28;20029;-70
2022/10/14 07:08:04;;;;;;;23.58;5.05;;;;;;;15.32;73.54;100803.16;4992833;28;20085;-71
2022/10/14 07:10:29;;;;;;;13.07;3.85;;;;;;;15.39;72.62;100802.47;4991105;28;20077;-70
2022/10/14 07:12:55;;;;;;;22.02;4.68;;;;;;;15.47;74.38;100798.31;4994207;28;20022;-69
2022/10/14 07:15:20;;;;;;;20.50;5.07;;;;;;;15.66;73.18;100790.91;4993687;28;20040;-70
2022/10/14 07:17:46;;;;;;;15.88;4.13;;;;;;;15.68;73.06;100799.63;4994094;28;20031;-69
2022/10/14 07:20:11;;;;;;;20.02;3.72;;;;;;;15.81;73.72;100782.53;4993765;28;20030;-69
2022/10/14 07:22:37;;;;;;;14.55;3.70;;;;;;;15.94;73.13;100788.91;4993784;28;20617;-70
2022/10/14 07:25:03;;;;;;;11.52;3.83;;;;;;;16.03;74.63;100788.22;4993584;28;20034;-69
2022/10/14 07:27:29;;;;;;;18.70;3.67;;;;;;;16.05;72.15;100786.50;4993557;28;20035;-72
2022/10/14 07:29:54;;;;;;;10.77;3.78;;;;;;;16.12;72.04;100788.38;4993858;28;20105;-69
2022/10/14 07:32:20;;;;;;;15.60;3.72;;;;;;;15.87;73.19;100742.78;4993485;28;20030;-72
2022/10/14 07:34:45;;;;;;;18.73;4.07;;;;;;;16.11;73.73;100776.19;4993529;28;20026;-69
2022/10/14 07:37:11;;;;;;;15.95;4.30;;;;;;;16.13;72.90;100784.94;4993574;28;20045;-69
2022/10/14 07:39:36;;;;;;;11.30;4.03;;;;;;;16.04;71.32;100775.22;4993361;28;20425;-69
2022/10/14 07:42:02;;;;;;;11.65;4.30;;;;;;;16.17;72.42;100789.34;4993655;28;20026;-69
2022/10/14 07:44:27;;;;;;;23.95;5.13;;;;;;;16.23;70.53;100775.56;4993603;28;20456;-69
2022/10/14 07:46:53;;;;;;;13.40;4.00;;;;;;;16.18;69.95;100770.28;4993329;28;20064;-68
2022/10/14 07:49:20;;;;;;;19.13;4.30;;;;;;;16.31;70.82;100772.25;4993374;28;20022;-70
2022/10/14 07:51:46;;;;;;;17.70;5.38;;;;;;;16.24;71.11;100762.56;5008320;28;20034;-68
2022/10/14 07:54:18;;;;;;;12.75;4.15;;;;;;;16.39;71.07;100769.78;4993288;28;20053;-70
2022/10/14 07:56:44;;;;;;;14.48;3.90;;;;;;;16.49;73.36;100768.22;4993379;28;20261;-69
2022/10/14 07:59:10;;;;;;;14.10;3.25;;;;;;;16.58;72.24;100763.16;4993065;28;20061;-71
2022/10/14 08:01:36;;;;;;;12.57;2.28;;;;;;;16.61;73.14;100765.81;4993252;28;20030;-69
2022/10/14 08:04:01;;;;;;;11.25;2.65;;;;;;;16.74;73.24;100763.44;4977767;28;20030;-73
2022/10/14 08:06:27;;;;;;;16.15;2.70;;;;;;;16.75;73.08;100734.75;4991881;28;20034;-71
2022/10/14 08:08:52;;;;;;;12.65;2.80;;;;;;;17.01;70.72;100721.28;4988510;28;20035;-70
2022/10/14 08:11:24;;;;;;;14.52;3.65;;;;;;;17.19;68.79;100720.66;4983036;28;20061;-71
2022/10/14 08:13:50;;;;;;;8.73;3.08;;;;;;;17.59;68.13;100749.00;4984303;28;20484;-70
2022/10/14 08:16:22;;;;;;;11.38;3.38;;;;;;;17.80;68.71;100745.78;4981261;28;20026;-73
2022/10/14 08:18:49;;;;;;;11.40;2.67;;;;;;;18.01;66.75;100749.56;4980932;28;20101;-69
2022/10/14 08:21:16;;;;;;;9.32;2.28;;;;;;;18.12;65.58;100745.31;4982776;28;20384;-69
2022/10/14 08:23:41;;;;;;;20.25;4.53;;;;;;;18.29;63.76;100755.91;4991460;28;20022;-71
2022/10/14 08:26:30;;;;;;;25.77;5.30;;;;;;;18.39;63.81;100756.88;4992608;28;20428;-72
2022/10/14 08:28:56;;;;;;;12.93;4.72;;;;;;;18.42;64.76;100751.69;4992290;28;20088;-70
2022/10/14 08:31:22;;;;;;;13.02;3.72;;;;;;;18.51;63.84;100746.53;4991974;28;20084;-70
2022/10/14 08:33:48;;;;;;;13.95;3.80;;;;;;;18.51;64.63;100749.16;4992233;28;20030;-70
2022/10/14 08:36:14;;;;;;;28.50;6.10;;;;;;;18.43;64.69;100748.22;4992246;28;20125;-70
2022/10/14 08:38:40;;;;;;;24.95;4.85;;;;;;;18.41;64.60;100739.47;4992116;28;20041;-67
2022/10/14 08:41:22;;;;;;;8.38;2.78;;;;;;;18.55;62.06;100743.06;4992381;28;20038;-69
2022/10/14 08:44:02;;;;;;;8.45;2.70;;;;;;;18.59;63.07;100749.22;5006627;28;20042;-69
2022/10/14 08:46:44;;;;;;;6.20;2.17;;;;;;;18.54;63.13;100749.19;4991997;28;20544;-70
2022/10/14 08:49:47;;;;;;;13.70;3.58;;;;;;;18.53;62.51;100747.44;4991774;28;20481;-69
2022/10/14 08:52:26;;;;;;;19.85;5.50;;;;;;;18.38;63.04;100706.34;4992021;28;20036;-72
2022/10/14 08:55:01;;;;;;;41.67;11.02;;;;;;;18.64;63.10;100738.81;4991956;28;20105;-69
2022/10/14 08:57:32;;;;;;;24.80;5.63;;;;;;;18.76;62.55;100746.75;4991952;28;20043;-71
2022/10/14 08:59:58;;;;;;;37.33;7.15;;;;;;;18.84;61.71;100744.19;4991726;28;20088;-70
2022/10/14 09:02:32;;;;;;;31.73;8.27;;;;;;;18.90;62.56;100746.84;4991684;28;20026;-68
2022/10/14 09:04:59;;;;;;;17.83;4.85;;;;;;;18.80;59.73;100719.72;4991366;28;20500;-69
2022/10/14 09:07:25;;;;;;;30.85;9.10;;;;;;;18.98;61.52;100744.31;4991822;28;20137;-69
2022/10/14 09:09:57;;;;;;;16.92;4.50;;;;;;;18.83;62.02;100698.84;4990001;28;20493;-69
2022/10/14 09:12:28;;;;;;;16.65;4.18;;;;;;;18.92;60.59;100706.78;4991557;28;20050;-67
2022/10/14 09:15:12;;;;;;;14.95;4.45;;;;;;;18.96;60.41;100707.66;4991629;28;20033;-67
2022/10/14 09:18:04;;;;;;;4.68;2.30;;;;;;;19.05;55.95;100717.31;4991569;28;20034;-70
2022/10/14 09:20:30;;;;;;;5.35;2.25;;;;;;;18.71;56.23;100697.00;4950137;28;20082;-69
2022/10/14 09:23:18;;;;;;;8.70;2.92;;;;;;;18.89;58.11;100734.63;4950239;28;20493;-70
2022/10/14 09:25:48;;;;;;;5.65;2.40;;;;;;;19.03;58.04;100727.78;4949796;28;20455;-68
2022/10/14 09:28:13;;;;;;;7.07;3.10;;;;;;;19.15;57.81;100728.72;4950150;28;20513;-69
2022/10/14 09:30:39;;;;;;;9.77;2.47;;;;;;;19.12;57.36;100728.72;4934055;28;20039;-69
2022/10/14 09:33:09;;;;;;;6.97;2.88;;;;;;;19.13;57.86;100722.59;4946385;29;20122;-69
2022/10/14 09:35:39;;;;;;;8.48;2.72;;;;;;;19.16;57.29;100726.09;4945906;28;20027;-68
2022/10/14 09:38:06;;;;;;;6.18;2.35;;;;;;;18.99;57.09;100712.03;4949623;28;20043;-68
2022/10/14 09:40:35;;;;;;;10.93;2.83;;;;;;;19.06;57.81;100722.56;4930541;29;20043;-68
2022/10/14 09:43:07;;;;;;;6.18;2.80;;;;;;;19.12;57.64;100723.47;4931025;29;20576;-70
2022/10/14 09:46:06;;;;;;;7.00;2.65;;;;;;;19.26;56.81;100711.31;4949556;28;20043;-67
2022/10/14 09:48:48;;;;;;;45.83;8.65;;;;;;;19.36;57.27;100712.25;4876790;29;20064;-69
2022/10/14 09:51:19;;;;;;;24.90;5.85;;;;;;;19.45;56.75;100716.66;4892764;29;20059;-72
2022/10/14 09:53:56;;;;;;;16.88;4.10;;;;;;;19.35;55.69;100674.75;4892986;29;20116;-67
2022/10/14 09:56:33;;;;;;;8.75;3.53;;;;;;;19.54;55.91;100701.84;4877146;29;20036;-67
2022/10/14 09:59:02;;;;;;;9.00;3.00;;;;;;;19.63;56.90;100694.91;4911588;29;20064;-67
2022/10/14 10:01:35;;;;;;;11.63;3.17;;;;;;;19.69;58.07;100692.31;4911817;29;20123;-67
2022/10/14 10:04:26;;;;;;;10.60;2.92;;;;;;;19.75;57.54;100689.72;4911691;29;20119;-66
2022/10/14 10:06:53;;;;;;;7.30;2.70;;;;;;;19.47;56.17;100658.19;4911089;29;20030;-70
2022/10/14 10:09:20;;;;;;;14.73;4.03;;;;;;;19.61;57.86;100688.78;4909029;29;20180;-69
2022/10/14 10:11:46;;;;;;;48.72;8.95;;;;;;;19.70;56.74;100689.69;4904725;29;20046;-69
2022/10/14 10:14:31;;;;;;;34.83;6.63;;;;;;;19.82;55.53;100685.34;4913118;29;20036;-66
2022/10/14 10:17:08;;;;;;;62.75;12.93;;;;;;;19.88;55.63;100681.03;4914895;29;20059;-70
2022/10/14 10:20:17;;;;;;;24.75;5.75;;;;;;;19.98;55.27;100675.81;4914819;29;20047;-70
2022/10/14 10:22:43;;;;;;;8.32;3.55;;;;;;;19.84;56.50;100644.34;4914840;29;20035;-70
2022/10/14 10:25:09;;;;;;;10.75;3.60;;;;;;;20.07;57.84;100674.94;4963649;28;20806;-68
2022/10/14 10:27:38;;;;;;;9.77;3.35;;;;;;;20.01;56.58;100667.94;4976949;28;20043;-68
2022/10/14 10:30:13;;;;;;;8.93;3.45;;;;;;;20.06;56.25;100660.94;4976463;28;20030;-67
2022/10/14 10:32:53;;;;;;;7.22;3.30;;;;;;;20.10;56.55;100657.47;5028516;28;20065;-66
2022/10/14 10:35:19;;;;;;;10.52;3.50;;;;;;;20.21;55.66;100654.84;5028604;28;20029;-67
2022/10/14 10:38:05;;;;;;;7.75;3.58;;;;;;;20.10;54.59;100660.09;5030740;28;20051;-67
2022/10/14 10:40:31;;;;;;;8.80;3.03;;;;;;;19.85;55.20;100620.78;5030296;28;20048;-67
2022/10/14 10:43:38;;;;;;;11.70;3.75;;;;;;;20.12;57.30;100647.84;5031206;28;20044;-70
2022/10/14 10:46:18;;;;;;;7.35;3.22;;;;;;;20.15;55.13;100642.63;5031191;28;20030;-67
2022/10/14 10:48:48;;;;;;;8.02;3.03;;;;;;;20.12;55.78;100634.75;5026699;28;20056;-68
2022/10/14 10:51:30;;;;;;;7.97;3.55;;;;;;;20.11;56.50;100635.66;5030805;28;20026;-68
2022/10/14 10:54:21;;;;;;;10.68;3.55;;;;;;;20.15;54.94;100632.13;5030856;28;20056;-70
2022/10/14 10:56:51;;;;;;;8.10;3.60;;;;;;;20.28;54.24;100624.28;5030419;28;20102;-71
2022/10/14 10:59:29;;;;;;;9.30;3.28;;;;;;;20.26;54.57;100615.53;5030829;28;20045;-74
2022/10/14 11:02:15;;;;;;;13.90;3.53;;;;;;;20.13;53.95;100618.16;5030894;28;20467;-69
2022/10/14 11:05:11;;;;;;;9.25;3.60;;;;;;;20.03;53.60;100609.41;4990385;28;20058;-69
2022/10/14 11:13:44;;;;;;;20.25;4.28;;;;;;;20.32;53.52;100607.66;4983540;28;20116;-70
2022/10/14 11:16:43;;;;;;;8.88;3.85;;;;;;;20.44;53.41;100599.78;5029247;28;20088;-68
2022/10/14 11:19:29;;;;;;;10.88;4.13;;;;;;;20.35;54.91;100600.66;5028213;28;20041;-74
2022/10/14 11:22:03;;;;;;;33.05;7.20;;;;;;;20.19;56.76;100596.31;5029687;28;20034;-69
2022/10/14 11:25:00;;;;;;;35.47;6.88;;;;;;;20.23;58.76;100594.56;5029193;28;20033;-67
2022/10/14 11:27:53;;;;;;;72.05;12.73;;;;;;;20.18;59.22;100590.19;4961506;28;20082;-69
2022/10/14 11:30:43;;;;;;;23.92;6.07;;;;;;;20.16;58.38;100588.44;4946512;28;20039;-74
2022/10/14 11:33:18;;;;;;;22.48;6.10;;;;;;;19.84;56.96;100532.56;4951763;28;20127;-69
2022/10/14 11:35:58;;;;;;;18.88;5.32;;;;;;;20.21;56.94;100578.81;4952221;28;20031;-70
2022/10/14 11:39:02;;;;;;;23.15;6.22;;;;;;;20.29;56.47;100576.22;4956087;28;20050;-71
2022/10/14 11:41:48;;;;;;;23.30;4.82;;;;;;;20.14;55.06;100546.50;4956135;28;20178;-70